createdAt,value
2022-10-22T00:01:41.723Z,142.85
2022-10-22T00:04:08.477Z,152.38
2022-10-22T00:06:35.292Z,142.02
2022-10-22T00:09:02.112Z,151.85
2022-10-22T00:11:28.786Z,141.10
2022-10-22T00:13:55.587Z,144.55
2022-10-22T00:16:22.203Z,139.55
2022-10-22T00:18:48.890Z,150.82
2022-10-22T00:21:15.483Z,139.10
2022-10-22T00:23:43.430Z,141.80
2022-10-22T00:26:10.496Z,152.15
2022-10-22T00:28:37.290Z,139.35
2022-10-22T00:31:04.541Z,153.07
2022-10-22T00:33:31.185Z,146.32
2022-10-22T00:35:58.177Z,141.65
2022-10-22T00:38:24.931Z,151.52
2022-10-22T00:40:51.765Z,150.27
2022-10-22T00:43:19.743Z,150.35
2022-10-22T00:45:46.773Z,143.88
2022-10-22T00:48:17.615Z,138.15
2022-10-22T00:50:47.508Z,151.13
2022-10-22T00:53:20.921Z,140.77
2022-10-22T00:55:52.997Z,145.20
2022-10-22T00:58:23.109Z,146.13
2022-10-22T01:00:49.858Z,145.38
2022-10-22T01:03:16.568Z,137.98
2022-10-22T01:05:51.198Z,137.13
2022-10-22T01:08:50.231Z,152.77
2022-10-22T01:11:32.930Z,139.57
2022-10-22T01:14:24.407Z,143.43
2022-10-22T01:17:11.921Z,137.98
2022-10-22T01:20:09.662Z,140.15
2022-10-22T01:22:44.162Z,136.60
2022-10-22T01:25:25.544Z,140.18
2022-10-22T01:28:14.083Z,143.55
2022-10-22T01:30:41.783Z,141.05
2022-10-22T01:33:13.285Z,147.73
2022-10-22T01:35:43.790Z,140.80
2022-10-22T01:38:17.483Z,149.15
2022-10-22T01:40:45.419Z,140.35
2022-10-22T01:43:12.301Z,137.25
2022-10-22T01:45:56.529Z,144.38
2022-10-22T01:48:25.951Z,144.35
2022-10-22T01:51:23.376Z,149.48
2022-10-22T01:53:59.136Z,149.88
2022-10-22T01:56:53.214Z,144.13
2022-10-22T01:59:44.292Z,140.95
2022-10-22T02:02:36.331Z,150.73
2022-10-22T02:05:16.969Z,140.52
2022-10-22T02:07:51.992Z,144.77
2022-10-22T02:10:19.747Z,140.45
2022-10-22T02:12:50.369Z,135.90
2022-10-22T02:15:20.067Z,139.73
2022-10-22T02:17:47.829Z,143.30
2022-10-22T02:20:23.215Z,145.27
2022-10-22T02:22:50.156Z,151.63
2022-10-22T02:25:17.282Z,142.65
2022-10-22T02:27:51.881Z,139.40
2022-10-22T02:30:23.475Z,138.20
2022-10-22T02:33:11.620Z,140.68
2022-10-22T02:35:41.305Z,139.52
2022-10-22T02:38:09.467Z,139.52
2022-10-22T02:40:36.385Z,137.50
2022-10-22T02:43:05.364Z,139.23
2022-10-22T02:45:32.926Z,146.60
2022-10-22T02:47:59.589Z,141.25
2022-10-22T02:50:26.319Z,141.60
2022-10-22T02:52:52.925Z,146.23
2022-10-22T02:55:19.551Z,156.82
2022-10-22T02:57:46.170Z,146.73
2022-10-22T03:00:13.918Z,149.65
2022-10-22T03:02:40.562Z,141.98
2022-10-22T03:05:07.693Z,145.23
2022-10-22T03:07:34.541Z,146.30
2022-10-22T03:10:01.165Z,145.60
2022-10-22T03:12:27.810Z,144.40
2022-10-22T03:14:54.394Z,142.57
2022-10-22T03:17:20.989Z,141.10
2022-10-22T03:19:47.591Z,149.23
2022-10-22T03:22:21.392Z,153.60
2022-10-22T03:24:52.940Z,143.25
2022-10-22T03:27:21.524Z,148.90
2022-10-22T03:29:49.980Z,150.55
2022-10-22T03:32:16.584Z,139.75
2022-10-22T03:34:43.216Z,147.07
2022-10-22T03:37:10.243Z,142.73
2022-10-22T03:39:37.375Z,139.65
2022-10-22T03:42:05.487Z,143.40
2022-10-22T03:44:33.127Z,153.27
2022-10-22T03:47:02.488Z,143.50
2022-10-22T03:49:29.774Z,146.80
2022-10-22T03:51:56.514Z,147.02
2022-10-22T03:54:23.173Z,139.85
2022-10-22T03:56:49.836Z,150.43
2022-10-22T03:59:16.466Z,142.05
2022-10-22T04:01:43.102Z,141.07
2022-10-22T04:04:09.804Z,140.35
2022-10-22T04:06:36.385Z,148.63
2022-10-22T04:09:03.128Z,144.40
2022-10-22T04:11:29.728Z,139.68
2022-10-22T04:13:56.370Z,143.20
2022-10-22T04:16:25.159Z,145.45
2022-10-22T04:18:54.163Z,138.55
2022-10-22T04:21:20.788Z,135.05
2022-10-22T04:23:50.058Z,136.07
2022-10-22T04:26:17.926Z,138.85
2022-10-22T04:28:45.709Z,134.85
2022-10-22T04:31:18.433Z,132.05
2022-10-22T04:33:45.296Z,137.00
2022-10-22T04:36:14.440Z,144.60
2022-10-22T04:38:42.682Z,148.18
2022-10-22T04:41:18.142Z,135.45
2022-10-22T04:43:45.477Z,149.70
2022-10-22T04:46:14.156Z,141.32
2022-10-22T04:48:42.336Z,150.45
2022-10-22T04:51:12.063Z,150.43
2022-10-22T04:53:40.545Z,133.80
2022-10-22T04:56:09.460Z,137.40
2022-10-22T04:58:36.093Z,140.95
2022-10-22T05:01:13.941Z,134.95
2022-10-22T05:03:41.097Z,143.38
2022-10-22T05:06:07.967Z,139.25
2022-10-22T05:08:34.805Z,142.15
2022-10-22T05:11:01.412Z,136.15
2022-10-22T05:13:28.029Z,137.55
2022-10-22T05:15:54.606Z,139.15
2022-10-22T05:18:22.629Z,151.95
2022-10-22T05:20:49.408Z,143.52
2022-10-22T05:23:16.067Z,150.75
2022-10-22T05:25:42.703Z,148.95
2022-10-22T05:28:09.332Z,132.75
2022-10-22T05:30:35.901Z,137.55
2022-10-22T05:33:02.548Z,137.77
2022-10-22T05:35:29.156Z,134.90
2022-10-22T05:40:30.438Z,133.00
2022-10-22T05:42:58.688Z,136.95
2022-10-22T05:45:25.255Z,137.75
2022-10-22T05:47:51.849Z,140.70
2022-10-22T05:50:18.487Z,134.93
2022-10-22T05:52:45.095Z,139.90
2022-10-22T05:55:11.686Z,136.23
2022-10-22T05:57:39.964Z,145.80
2022-10-22T06:00:07.797Z,132.50
2022-10-22T06:02:36.226Z,138.25
2022-10-22T06:05:02.927Z,144.25
2022-10-22T06:07:30.237Z,132.07
2022-10-22T06:09:56.945Z,141.32
2022-10-22T06:12:23.650Z,137.63
2022-10-22T06:14:50.309Z,135.40
2022-10-22T06:17:17.195Z,139.05
2022-10-22T06:19:43.825Z,133.85
2022-10-22T06:22:10.523Z,141.27
2022-10-22T06:24:38.589Z,135.20
2022-10-22T06:27:07.136Z,136.40
2022-10-22T06:29:34.304Z,138.23
2022-10-22T06:32:00.938Z,136.25
2022-10-22T06:34:27.613Z,134.98
2022-10-22T06:36:54.225Z,131.88
2022-10-22T06:39:20.861Z,140.88
2022-10-22T06:41:47.574Z,136.52
2022-10-22T06:44:19.193Z,144.07
2022-10-22T06:46:45.869Z,145.35
2022-10-22T06:49:14.983Z,136.10
2022-10-22T06:51:42.133Z,145.00
2022-10-22T06:54:09.085Z,138.52
2022-10-22T06:56:35.706Z,154.35
2022-10-22T06:59:02.677Z,146.52
2022-10-22T07:01:32.733Z,145.73
2022-10-22T07:04:00.113Z,150.32
2022-10-22T07:06:29.101Z,141.52
2022-10-22T07:08:57.455Z,150.95
2022-10-22T07:11:30.021Z,142.90
2022-10-22T07:13:59.020Z,143.05
2022-10-22T07:16:29.645Z,140.82
2022-10-22T07:18:58.934Z,153.05
2022-10-22T07:21:26.218Z,143.35
2022-10-22T07:23:52.945Z,135.90
2022-10-22T07:26:22.438Z,155.18
2022-10-22T07:28:49.136Z,140.50
2022-10-22T07:31:17.742Z,154.63
2022-10-22T07:33:45.135Z,147.23
2022-10-22T07:36:17.658Z,154.73
2022-10-22T07:38:49.861Z,156.48
2022-10-22T07:41:17.172Z,143.32
2022-10-22T07:43:44.043Z,145.88
2022-10-22T07:46:11.135Z,145.70
2022-10-22T07:48:39.099Z,163.45
2022-10-22T07:51:05.967Z,162.90
2022-10-22T07:53:32.850Z,151.95
2022-10-22T07:55:59.510Z,150.40
2022-10-22T07:58:26.422Z,162.60
2022-10-22T08:00:57.561Z,157.43
2022-10-22T08:03:24.314Z,160.15
2022-10-22T08:05:52.126Z,152.57
2022-10-22T08:08:19.785Z,142.63
2022-10-22T08:10:48.117Z,139.32
2022-10-22T08:13:15.158Z,139.65
2022-10-22T08:18:10.050Z,143.35
2022-10-22T08:20:36.668Z,142.20
2022-10-22T08:23:03.434Z,137.90
2022-10-22T08:25:30.281Z,150.35
2022-10-22T08:27:56.972Z,146.88
2022-10-22T08:30:23.827Z,140.70
2022-10-22T08:32:53.157Z,146.73
2022-10-22T08:35:20.775Z,148.60
2022-10-22T08:37:47.405Z,143.00
2022-10-22T08:40:29.765Z,141.20
2022-10-22T08:43:02.320Z,142.40
2022-10-22T08:45:51.093Z,143.68
2022-10-22T08:48:32.875Z,152.18
2022-10-22T08:50:59.915Z,145.55
2022-10-22T08:53:43.048Z,142.60
2022-10-22T08:56:09.742Z,145.02
2022-10-22T08:58:42.328Z,148.85
2022-10-22T09:01:33.460Z,140.82
2022-10-22T09:04:11.198Z,142.63
2022-10-22T09:06:40.738Z,150.60
2022-10-22T09:09:17.569Z,155.57
2022-10-22T09:11:47.812Z,156.52
2022-10-22T09:14:18.165Z,155.18
2022-10-22T09:16:50.966Z,146.27
2022-10-22T09:19:42.396Z,156.80
2022-10-22T09:22:24.667Z,153.35
2022-10-22T09:25:18.541Z,156.25
2022-10-22T09:27:45.178Z,150.73
2022-10-22T09:30:22.507Z,155.93
2022-10-22T09:33:01.461Z,155.88
2022-10-22T09:35:28.736Z,152.48
2022-10-22T09:37:56.862Z,152.50
2022-10-22T09:40:24.164Z,156.88
2022-10-22T09:42:50.775Z,158.38
2022-10-22T09:45:24.749Z,170.65
2022-10-22T09:48:10.194Z,167.55
2022-10-22T09:50:45.429Z,158.02
2022-10-22T09:53:18.535Z,165.30
2022-10-22T09:55:51.844Z,155.52
2022-10-22T09:58:19.017Z,159.30
2022-10-22T10:00:51.575Z,159.10
2022-10-22T10:03:28.689Z,156.80
2022-10-22T10:06:01.540Z,167.15
2022-10-22T10:08:31.781Z,161.52
2022-10-22T10:11:28.067Z,157.50
2022-10-22T10:14:09.950Z,156.63
2022-10-22T10:16:59.210Z,164.10
2022-10-22T10:19:34.973Z,158.00
2022-10-22T10:22:31.389Z,158.05
2022-10-22T10:25:16.321Z,153.55
2022-10-22T10:28:05.850Z,165.95
2022-10-22T10:30:38.515Z,154.68
2022-10-22T10:33:42.594Z,159.27
2022-10-22T10:36:24.510Z,166.77
2022-10-22T10:39:03.309Z,157.57
2022-10-22T10:41:42.019Z,163.70
2022-10-22T10:44:39.785Z,155.20
2022-10-22T10:47:27.401Z,158.15
2022-10-22T10:50:02.185Z,156.57
2022-10-22T10:52:45.321Z,167.90
2022-10-22T10:55:15.022Z,167.45
2022-10-22T10:58:12.657Z,170.20
2022-10-22T11:00:50.820Z,169.18
2022-10-22T11:03:32.846Z,172.50
2022-10-22T11:06:04.258Z,179.73
2022-10-22T11:08:33.940Z,178.77
2022-10-22T11:11:08.852Z,174.48
2022-10-22T11:14:15.191Z,166.55
2022-10-22T11:16:56.826Z,162.57
2022-10-22T11:19:46.512Z,165.10
2022-10-22T11:23:20.177Z,154.43
2022-10-22T11:25:50.200Z,159.00
2022-10-22T11:28:27.633Z,161.90
2022-10-22T11:31:01.951Z,163.55
2022-10-22T11:33:39.885Z,155.77
2022-10-22T11:36:09.109Z,161.23
2022-10-22T11:38:36.820Z,154.65
2022-10-22T11:41:20.019Z,162.07
2022-10-22T11:44:10.691Z,164.38
2022-10-22T11:46:37.338Z,153.48
2022-10-22T11:49:25.641Z,164.52
2022-10-22T11:52:06.120Z,162.52
2022-10-22T11:54:37.403Z,159.18
2022-10-22T11:57:16.143Z,156.90
2022-10-22T11:59:59.283Z,165.05
2022-10-22T12:02:28.839Z,170.88
2022-10-22T12:05:16.041Z,161.77
2022-10-22T12:07:51.890Z,155.77
2022-10-22T12:13:20.453Z,146.80
2022-10-22T12:15:49.456Z,155.40
2022-10-22T12:18:16.664Z,162.20
2022-10-22T12:20:43.406Z,149.50
2022-10-22T12:23:13.342Z,156.40
2022-10-22T12:25:40.080Z,152.68
2022-10-22T12:28:12.157Z,162.50
2022-10-22T12:30:39.169Z,155.02
2022-10-22T12:33:08.357Z,153.07
2022-10-22T12:35:43.151Z,148.80
2022-10-22T12:38:20.260Z,157.90
2022-10-22T12:40:49.164Z,151.27
2022-10-22T12:43:18.845Z,160.68
2022-10-22T12:45:48.379Z,150.40
2022-10-22T12:48:16.999Z,148.05
2022-10-22T12:50:47.202Z,151.32
2022-10-22T12:53:27.303Z,152.90
2022-10-22T12:55:55.964Z,145.85
2022-10-22T12:58:26.688Z,149.70
2022-10-22T13:00:59.213Z,159.63
2022-10-22T13:03:50.595Z,148.98
2022-10-22T13:06:20.331Z,156.32
2022-10-22T13:09:03.917Z,157.98
2022-10-22T13:11:51.456Z,144.68
2022-10-22T13:14:29.172Z,147.02
2022-10-22T13:17:13.024Z,150.15
2022-10-22T13:19:55.010Z,159.00
2022-10-22T13:22:25.699Z,155.23
2022-10-22T13:24:53.013Z,157.20
2022-10-22T13:27:20.169Z,148.88
2022-10-22T13:29:46.819Z,148.02
2022-10-22T13:32:32.214Z,158.95
2022-10-22T13:35:01.840Z,153.32
2022-10-22T13:37:31.243Z,149.60
2022-10-22T13:39:58.255Z,144.10
2022-10-22T13:42:24.982Z,157.45
2022-10-22T13:44:51.719Z,154.60
2022-10-22T13:47:27.512Z,146.02
2022-10-22T13:52:40.046Z,147.20
2022-10-22T13:55:21.645Z,151.32
2022-10-22T13:57:49.692Z,145.40
2022-10-22T14:00:19.601Z,144.65
2022-10-22T14:02:49.938Z,153.63
2022-10-22T14:05:18.008Z,150.57
2022-10-22T14:07:45.217Z,148.35
2022-10-22T14:10:20.552Z,155.38
2022-10-22T14:12:52.342Z,154.38
2022-10-22T14:15:26.559Z,153.85
2022-10-22T14:17:59.012Z,154.20
2022-10-22T14:20:29.165Z,153.63
2022-10-22T14:22:56.500Z,146.93
2022-10-22T14:25:26.026Z,158.07
2022-10-22T14:27:52.721Z,160.30
2022-10-22T14:30:22.163Z,149.30
2022-10-22T14:32:49.026Z,148.50
2022-10-22T14:35:19.088Z,154.98
2022-10-22T14:37:45.946Z,142.70
2022-10-22T14:40:14.883Z,147.27
2022-10-22T14:42:44.658Z,154.25
2022-10-22T14:45:18.247Z,147.38
2022-10-22T14:47:44.948Z,150.13
2022-10-22T14:50:11.894Z,160.18
2022-10-22T14:52:38.699Z,154.60
2022-10-22T14:55:05.912Z,151.88
2022-10-22T14:57:32.832Z,150.70
2022-10-22T14:59:59.462Z,148.90
2022-10-22T15:02:26.536Z,144.43
2022-10-22T15:04:53.138Z,147.68
2022-10-22T15:07:20.444Z,156.85
2022-10-22T15:09:47.206Z,150.18
2022-10-22T15:12:13.938Z,154.77
2022-10-22T15:14:40.616Z,159.23
2022-10-22T15:17:07.257Z,160.98
2022-10-22T15:19:33.884Z,153.45
2022-10-22T15:22:00.496Z,155.90
2022-10-22T15:24:27.089Z,144.55
2022-10-22T15:26:54.888Z,151.93
2022-10-22T15:29:21.610Z,145.30
2022-10-22T15:31:54.091Z,155.43
2022-10-22T15:34:27.576Z,148.18
2022-10-22T15:36:57.053Z,145.27
2022-10-22T15:39:24.709Z,145.27
2022-10-22T15:41:53.794Z,154.23
2022-10-22T15:44:25.680Z,150.52
2022-10-22T15:46:54.972Z,144.02
2022-10-22T15:49:23.268Z,143.05
2022-10-22T15:51:49.957Z,146.45
2022-10-22T15:54:19.070Z,149.93
2022-10-22T15:56:46.330Z,149.43
2022-10-22T15:59:14.760Z,153.93
2022-10-22T16:04:44.311Z,152.50
2022-10-22T16:07:21.210Z,147.10
2022-10-22T16:09:50.778Z,142.02
2022-10-22T16:12:17.648Z,155.68
2022-10-22T16:14:44.310Z,143.70
2022-10-22T16:17:11.107Z,154.20
2022-10-22T16:19:38.289Z,145.57
2022-10-22T16:22:05.086Z,149.30
2022-10-22T16:24:31.724Z,147.80
2022-10-22T16:26:58.697Z,145.27
2022-10-22T16:29:25.349Z,150.57
2022-10-22T16:31:52.044Z,156.00
2022-10-22T16:34:18.670Z,143.95
2022-10-22T16:36:45.409Z,157.95
2022-10-22T16:39:12.246Z,142.70
2022-10-22T16:41:38.918Z,158.23
2022-10-22T16:44:08.010Z,151.20
2022-10-22T16:46:38.417Z,149.50
2022-10-22T16:49:06.616Z,149.52
2022-10-22T16:51:34.669Z,145.95
2022-10-22T16:54:02.407Z,146.18
2022-10-22T16:56:30.434Z,155.40
2022-10-22T16:58:57.668Z,152.95
2022-10-22T17:01:26.707Z,147.95
2022-10-22T17:03:54.783Z,143.55
2022-10-22T17:06:23.648Z,139.70
2022-10-22T17:08:50.421Z,145.13
2022-10-22T17:11:20.672Z,142.23
2022-10-22T17:13:49.481Z,143.63
2022-10-22T17:16:18.414Z,153.82
2022-10-22T17:21:19.080Z,140.35
2022-10-22T17:23:47.134Z,152.15
2022-10-22T17:26:20.569Z,148.75
2022-10-22T17:28:48.272Z,163.10
2022-10-22T17:31:22.349Z,154.05
2022-10-22T17:33:51.491Z,149.45
2022-10-22T17:36:19.591Z,141.80
2022-10-22T17:38:49.708Z,157.88
2022-10-22T17:41:19.912Z,164.07
2022-10-22T17:43:47.583Z,151.70
2022-10-22T17:46:23.089Z,148.45
2022-10-22T17:48:51.480Z,148.93
2022-10-22T17:51:19.307Z,146.98
2022-10-22T17:53:46.978Z,148.50
2022-10-22T17:56:20.475Z,145.25
2022-10-22T17:58:47.541Z,144.13
2022-10-22T18:01:31.932Z,140.13
2022-10-22T18:04:04.076Z,149.38
2022-10-22T18:06:54.054Z,147.95
2022-10-22T18:12:42.330Z,159.95
2022-10-22T18:15:09.750Z,153.30
2022-10-22T18:17:39.576Z,150.35
2022-10-22T18:20:07.553Z,157.90
2022-10-22T18:22:35.508Z,157.23
2022-10-22T18:25:02.270Z,156.95
2022-10-22T18:27:29.045Z,157.88
2022-10-22T18:29:55.730Z,147.73
2022-10-22T18:32:22.338Z,164.25
2022-10-22T18:34:48.983Z,152.52
2022-10-22T18:37:15.597Z,158.18
2022-10-22T18:39:42.244Z,157.70
2022-10-22T18:42:08.928Z,154.45
2022-10-22T18:44:36.275Z,155.60
2022-10-22T18:47:03.171Z,160.93
2022-10-22T18:49:29.891Z,157.68
2022-10-22T18:51:56.675Z,164.63
2022-10-22T18:54:24.381Z,145.60
2022-10-22T18:56:53.656Z,157.80
2022-10-22T18:59:24.975Z,149.88
2022-10-22T19:01:53.948Z,152.73
2022-10-22T19:04:20.932Z,152.75
2022-10-22T19:06:47.625Z,149.30
2022-10-22T19:09:16.038Z,151.05
2022-10-22T19:11:44.144Z,154.10
2022-10-22T19:14:10.901Z,155.73
2022-10-22T19:16:38.700Z,153.57
2022-10-22T19:19:07.282Z,167.73
2022-10-22T19:21:34.124Z,161.57
2022-10-22T19:24:02.333Z,153.98
2022-10-22T19:26:31.023Z,149.27
2022-10-22T19:29:03.230Z,155.20
2022-10-22T19:31:31.366Z,156.48
2022-10-22T19:34:00.324Z,155.63
2022-10-22T19:36:28.810Z,167.07
2022-10-22T19:38:56.584Z,159.20
2022-10-22T19:41:25.619Z,150.68
2022-10-22T19:43:53.918Z,155.77
2022-10-22T19:46:22.337Z,154.80
2022-10-22T19:48:51.346Z,156.13
2022-10-22T19:51:23.733Z,151.32
2022-10-22T19:53:51.243Z,154.52
2022-10-22T19:56:26.268Z,143.32
2022-10-22T19:58:53.296Z,153.52
2022-10-22T20:01:21.013Z,147.80
2022-10-22T20:03:49.045Z,146.90
2022-10-22T20:06:17.766Z,153.50
2022-10-22T20:08:45.190Z,151.52
2022-10-22T20:11:18.323Z,144.85
2022-10-22T20:13:48.079Z,148.98
2022-10-22T20:16:20.651Z,149.18
2022-10-22T20:18:47.237Z,144.02
2022-10-22T20:21:16.437Z,145.95
2022-10-22T20:23:43.417Z,151.35
2022-10-22T20:26:10.399Z,150.45
2022-10-22T20:28:38.750Z,152.20
2022-10-22T20:31:13.420Z,152.10
2022-10-22T20:33:48.881Z,147.45
2022-10-22T20:36:20.038Z,134.10
2022-10-22T20:38:49.027Z,154.35
2022-10-22T20:41:22.681Z,137.27
2022-10-22T20:43:51.613Z,151.25
2022-10-22T20:46:19.980Z,150.80
2022-10-22T20:48:46.989Z,147.48
2022-10-22T20:51:13.699Z,140.23
2022-10-22T20:53:40.350Z,134.43
2022-10-22T20:56:07.193Z,149.45
2022-10-22T20:58:33.815Z,144.93
2022-10-22T21:01:09.531Z,138.05
2022-10-22T21:03:39.767Z,139.52
2022-10-22T21:06:06.701Z,134.45
2022-10-22T21:08:33.388Z,132.18
2022-10-22T21:11:00.071Z,142.05
2022-10-22T21:13:26.732Z,140.68
2022-10-22T21:15:53.387Z,134.85
2022-10-22T21:18:20.090Z,143.15
2022-10-22T21:20:46.742Z,134.07
2022-10-22T21:23:13.630Z,141.35
2022-10-22T21:25:43.269Z,140.52
2022-10-22T21:28:11.047Z,146.98
2022-10-22T21:30:45.503Z,141.70
2022-10-22T21:33:12.329Z,135.07
2022-10-22T21:35:53.847Z,142.82
2022-10-22T21:38:22.127Z,140.82
2022-10-22T21:40:50.252Z,134.23
2022-10-22T21:43:22.934Z,133.48
2022-10-22T21:46:07.825Z,134.27
2022-10-22T21:48:44.059Z,143.68
2022-10-22T21:51:28.375Z,147.05
2022-10-22T21:53:55.239Z,141.43
2022-10-22T21:56:28.177Z,133.73
2022-10-22T21:58:55.306Z,137.10
2022-10-22T22:01:22.763Z,141.93
2022-10-22T22:03:50.736Z,133.25
2022-10-22T22:06:21.306Z,146.00
2022-10-22T22:08:50.786Z,142.65
2022-10-22T22:11:20.687Z,139.25
2022-10-22T22:13:48.801Z,131.95
2022-10-22T22:16:20.321Z,131.85
2022-10-22T22:18:49.179Z,134.27
2022-10-22T22:21:18.968Z,137.43
2022-10-22T22:23:48.142Z,133.50
2022-10-22T22:26:17.016Z,130.85
2022-10-22T22:28:43.667Z,144.65
2022-10-22T22:31:16.134Z,144.73
2022-10-22T22:33:42.874Z,135.25
2022-10-22T22:36:10.419Z,145.80
2022-10-22T22:38:37.713Z,136.88
2022-10-22T22:41:04.624Z,142.18
2022-10-22T22:43:31.318Z,137.88
2022-10-22T22:46:10.652Z,138.25
2022-10-22T22:48:37.295Z,128.18
2022-10-22T22:51:05.743Z,140.73
2022-10-22T22:53:33.830Z,141.35
2022-10-22T22:56:09.825Z,133.98
2022-10-22T22:58:37.947Z,132.80
2022-10-22T23:01:24.267Z,141.93
2022-10-22T23:04:06.058Z,126.72
2022-10-22T23:06:36.257Z,128.13
2022-10-22T23:09:05.028Z,138.73
2022-10-22T23:11:31.873Z,124.78
2022-10-22T23:14:04.126Z,125.25
2022-10-22T23:16:33.766Z,138.55
2022-10-22T23:19:01.617Z,136.40
2022-10-22T23:21:31.571Z,127.68
2022-10-22T23:24:00.609Z,133.63
2022-10-22T23:26:34.276Z,140.57
2022-10-22T23:29:11.924Z,138.70
2022-10-22T23:31:38.664Z,139.32
2022-10-22T23:34:06.623Z,129.98
2022-10-22T23:36:37.463Z,127.20
2022-10-22T23:39:08.964Z,140.52
2022-10-22T23:41:35.968Z,129.98
2022-10-22T23:44:03.168Z,124.32
2022-10-22T23:46:30.057Z,123.55
2022-10-22T23:48:56.912Z,137.00
2022-10-22T23:51:23.540Z,130.02
2022-10-22T23:53:59.211Z,121.32
2022-10-22T23:56:27.389Z,126.78
2022-10-22T23:58:54.408Z,139.07
